createdAt,value
2018-05-13T00:00:31.010Z,60.00
2018-05-13T00:02:59.593Z,59.20
2018-05-13T00:05:28.443Z,59.80
2018-05-13T00:07:56.782Z,59.70
2018-05-13T00:10:26.448Z,60.60
2018-05-13T00:12:54.855Z,60.50
2018-05-13T00:15:23.031Z,60.20
2018-05-13T00:17:52.546Z,60.80
2018-05-13T00:20:21.033Z,61.50
2018-05-13T00:22:49.493Z,61.00
2018-05-13T00:25:17.659Z,61.30
2018-05-13T00:27:46.635Z,60.30
2018-05-13T00:30:15.801Z,59.80
2018-05-13T00:32:44.947Z,60.50
2018-05-13T00:35:13.584Z,59.90
2018-05-13T00:37:41.766Z,59.70
2018-05-13T00:40:10.204Z,59.50
2018-05-13T00:42:38.903Z,59.90
2018-05-13T00:45:08.824Z,60.80
2018-05-13T00:47:37.011Z,59.80
2018-05-13T00:50:06.082Z,59.90
2018-05-13T00:52:35.037Z,59.40
2018-05-13T00:55:03.424Z,59.20
2018-05-13T00:57:31.882Z,59.60
2018-05-13T01:00:00.512Z,59.60
2018-05-13T01:02:29.558Z,60.00
2018-05-13T01:04:57.791Z,59.80
2018-05-13T01:07:28.375Z,60.80
2018-05-13T01:09:56.579Z,61.70
2018-05-13T01:12:25.154Z,61.80
2018-05-13T01:14:55.101Z,61.60
2018-05-13T01:17:24.330Z,61.50
2018-05-13T01:19:52.516Z,61.80
2018-05-13T01:22:20.695Z,62.40
2018-05-13T01:24:49.425Z,63.30
2018-05-13T01:27:17.847Z,64.00
2018-05-13T01:29:46.450Z,64.30
2018-05-13T01:32:15.071Z,65.10
2018-05-13T01:34:44.572Z,65.10
2018-05-13T01:37:13.202Z,65.60
2018-05-13T01:39:41.731Z,66.30
2018-05-13T01:42:09.868Z,65.10
2018-05-13T01:44:38.465Z,65.80
2018-05-13T01:47:06.892Z,66.40
2018-05-13T01:49:36.235Z,66.60
2018-05-13T01:52:04.439Z,66.60
2018-05-13T01:54:33.268Z,66.30
2018-05-13T01:57:01.859Z,66.20
2018-05-13T01:59:30.313Z,66.10
2018-05-13T02:01:58.877Z,66.20
2018-05-13T02:04:27.394Z,65.30
2018-05-13T02:06:55.824Z,66.00
2018-05-13T02:09:23.966Z,65.80
2018-05-13T02:11:52.456Z,66.10
2018-05-13T02:14:20.599Z,67.30
2018-05-13T02:16:48.783Z,67.40
2018-05-13T02:19:17.929Z,67.90
2018-05-13T02:21:46.867Z,68.60
2018-05-13T02:24:16.010Z,68.50
2018-05-13T02:26:44.655Z,68.10
2018-05-13T02:29:12.805Z,68.00
2018-05-13T02:31:41.357Z,68.10
2018-05-13T02:34:09.919Z,68.10
2018-05-13T02:36:38.340Z,68.50
2018-05-13T02:39:06.487Z,68.70
2018-05-13T02:41:34.938Z,69.50
2018-05-13T02:44:03.676Z,69.80
2018-05-13T02:46:32.864Z,70.30
2018-05-13T02:49:01.385Z,69.60
2018-05-13T02:51:29.543Z,69.90
2018-05-13T02:53:58.124Z,70.10
2018-05-13T02:56:26.754Z,70.70
2018-05-13T02:58:54.906Z,71.00
2018-05-13T03:01:24.004Z,71.20
2018-05-13T03:03:52.436Z,71.40
2018-05-13T03:06:21.137Z,70.70
2018-05-13T03:08:49.658Z,70.60
2018-05-13T03:11:18.298Z,71.40
2018-05-13T03:13:46.859Z,71.80
2018-05-13T03:16:15.870Z,71.60
2018-05-13T03:18:44.728Z,72.40
2018-05-13T03:21:13.051Z,72.40
2018-05-13T03:23:41.686Z,72.20
2018-05-13T03:26:10.516Z,72.10
2018-05-13T03:28:38.698Z,72.00
2018-05-13T03:31:06.875Z,71.90
2018-05-13T03:33:36.102Z,72.90
2018-05-13T03:36:04.628Z,72.90
2018-05-13T03:38:32.859Z,72.40
2018-05-13T03:41:02.412Z,72.70
2018-05-13T03:43:30.937Z,75.40
2018-05-13T03:45:59.566Z,76.80
2018-05-13T03:48:28.405Z,77.40
2018-05-13T03:50:57.557Z,79.20
2018-05-13T03:53:25.734Z,82.30
2018-05-13T03:55:54.363Z,83.90
2018-05-13T03:58:22.563Z,85.70
2018-05-13T04:00:50.751Z,84.30
2018-05-13T04:03:20.467Z,85.50
2018-05-13T04:05:48.742Z,85.40
2018-05-13T04:11:38.195Z,84.70
2018-05-13T04:14:20.163Z,85.40
2018-05-13T04:16:48.346Z,85.90
2018-05-13T04:19:17.450Z,86.60
2018-05-13T04:21:45.959Z,84.00
2018-05-13T04:24:14.614Z,84.70
2018-05-13T04:26:43.033Z,84.20
2018-05-13T04:29:11.662Z,85.30
2018-05-13T04:31:40.052Z,85.90
2018-05-13T04:34:08.611Z,86.50
2018-05-13T04:36:36.762Z,86.90
2018-05-13T04:39:07.125Z,86.90
2018-05-13T04:41:35.648Z,87.20
2018-05-13T04:44:03.790Z,87.70
2018-05-13T04:46:32.899Z,85.20
2018-05-13T04:49:02.169Z,82.60
2018-05-13T04:51:30.338Z,82.60
2018-05-13T04:53:58.799Z,84.20
2018-05-13T04:56:27.394Z,85.20
2018-05-13T04:58:55.619Z,85.70
2018-05-13T05:01:24.175Z,86.90
2018-05-13T05:03:53.528Z,87.10
2018-05-13T05:06:21.686Z,87.10
2018-05-13T05:08:50.232Z,88.50
2018-05-13T05:11:20.242Z,87.90
2018-05-13T05:13:48.454Z,88.40
2018-05-13T05:16:17.097Z,88.90
2018-05-13T05:18:45.595Z,88.50
2018-05-13T05:21:14.450Z,89.10
2018-05-13T05:23:43.718Z,88.40
2018-05-13T05:26:12.661Z,87.50
2018-05-13T05:28:41.070Z,87.80
2018-05-13T05:31:09.267Z,86.70
2018-05-13T05:33:37.925Z,87.40
2018-05-13T05:36:06.523Z,86.20
2018-05-13T05:38:34.944Z,87.00
2018-05-13T05:41:03.367Z,87.70
2018-05-13T05:43:32.552Z,85.60
2018-05-13T05:46:00.735Z,86.20
2018-05-13T05:48:29.874Z,84.90
2018-05-13T05:50:58.848Z,86.50
2018-05-13T05:53:28.951Z,84.50
2018-05-13T05:55:57.338Z,84.50
2018-05-13T05:58:25.532Z,84.70
2018-05-13T06:00:53.971Z,84.20
2018-05-13T06:03:22.531Z,83.90
2018-05-13T06:05:50.939Z,84.00
2018-05-13T06:08:19.901Z,79.60
2018-05-13T06:10:48.386Z,77.90
2018-05-13T06:13:16.591Z,77.20
2018-05-13T06:15:44.835Z,75.80
2018-05-13T06:18:13.477Z,74.50
2018-05-13T06:20:42.107Z,75.20
2018-05-13T06:23:11.142Z,74.50
2018-05-13T06:25:39.341Z,74.60
2018-05-13T06:28:07.531Z,73.60
2018-05-13T06:30:35.850Z,70.60
2018-05-13T06:33:04.526Z,71.90
2018-05-13T06:35:33.052Z,71.20
2018-05-13T06:38:01.577Z,71.60
2018-05-13T06:40:29.989Z,69.90
2018-05-13T06:42:59.974Z,73.20
2018-05-13T06:45:29.347Z,73.10
2018-05-13T06:47:58.486Z,70.50
2018-05-13T06:50:27.131Z,69.60
2018-05-13T06:52:55.288Z,70.30
2018-05-13T06:55:24.704Z,69.20
2018-05-13T06:57:52.863Z,69.20
2018-05-13T07:00:21.510Z,69.10
2018-05-13T07:02:50.229Z,70.00
2018-05-13T07:05:18.810Z,67.30
2018-05-13T07:07:47.332Z,67.40
2018-05-13T07:10:15.865Z,68.10
2018-05-13T07:12:44.280Z,66.70
2018-05-13T07:15:13.047Z,66.40
2018-05-13T07:17:41.645Z,66.60
2018-05-13T07:20:10.803Z,67.70
2018-05-13T07:22:39.271Z,65.00
2018-05-13T07:25:08.255Z,65.50
2018-05-13T07:27:36.896Z,66.40
2018-05-13T07:30:05.317Z,65.70
2018-05-13T07:32:34.142Z,65.20
2018-05-13T07:35:02.341Z,66.70
2018-05-13T07:37:31.629Z,67.40
2018-05-13T07:39:59.783Z,66.20
2018-05-13T07:42:28.259Z,64.50
2018-05-13T07:44:56.469Z,63.80
2018-05-13T07:47:24.660Z,63.60
2018-05-13T07:49:52.846Z,63.60
2018-05-13T07:52:22.257Z,61.30
2018-05-13T07:54:51.687Z,63.60
2018-05-13T07:57:20.550Z,63.60
2018-05-13T07:59:49.610Z,62.30
2018-05-13T08:02:17.807Z,63.30
2018-05-13T08:04:46.452Z,63.50
2018-05-13T08:07:15.599Z,63.50
2018-05-13T08:09:44.026Z,61.30
2018-05-13T08:12:12.520Z,61.00
2018-05-13T08:14:40.715Z,60.30
2018-05-13T08:17:09.463Z,61.30
2018-05-13T08:19:37.659Z,60.10
2018-05-13T08:22:05.842Z,61.40
2018-05-13T08:24:35.142Z,62.40
2018-05-13T08:27:03.327Z,62.20
2018-05-13T08:29:32.544Z,61.20
2018-05-13T08:32:01.591Z,62.60
2018-05-13T08:34:29.779Z,63.70
2018-05-13T08:36:58.435Z,63.90
2018-05-13T08:39:26.813Z,64.20
2018-05-13T08:41:56.127Z,65.10
2018-05-13T08:44:24.603Z,65.20
2018-05-13T08:46:53.467Z,65.40
2018-05-13T08:49:21.675Z,67.10
2018-05-13T08:51:50.099Z,67.00
2018-05-13T08:54:18.705Z,67.50
2018-05-13T08:56:48.068Z,67.00
2018-05-13T08:59:16.524Z,67.50
2018-05-13T09:01:45.992Z,71.30
2018-05-13T09:04:14.620Z,71.20
2018-05-13T09:06:43.447Z,71.80
2018-05-13T09:09:12.602Z,75.20
2018-05-13T09:11:41.242Z,76.60
2018-05-13T09:14:09.486Z,77.40
2018-05-13T09:16:37.587Z,78.50
2018-05-13T09:19:05.785Z,77.80
2018-05-13T09:21:34.299Z,77.40
2018-05-13T09:24:02.475Z,76.90
2018-05-13T09:26:31.186Z,76.30
2018-05-13T09:28:59.291Z,77.10
2018-05-13T09:31:28.634Z,78.80
2018-05-13T09:33:56.810Z,79.60
2018-05-13T09:36:25.754Z,77.80
2018-05-13T09:38:54.495Z,76.90
2018-05-13T09:41:23.549Z,77.70
2018-05-13T09:43:52.588Z,78.40
2018-05-13T09:46:21.117Z,77.00
2018-05-13T09:48:49.753Z,74.60
2018-05-13T09:51:18.679Z,74.90
2018-05-13T09:53:47.326Z,75.60
2018-05-13T09:56:15.485Z,75.10
2018-05-13T09:58:44.587Z,74.40
2018-05-13T10:01:12.757Z,72.90
2018-05-13T10:03:41.433Z,73.90
2018-05-13T10:06:10.571Z,75.40
2018-05-13T10:08:39.838Z,75.30
2018-05-13T10:11:07.984Z,75.20
2018-05-13T10:13:36.441Z,75.60
2018-05-13T10:16:06.343Z,76.80
2018-05-13T10:18:34.555Z,77.50
2018-05-13T10:21:04.289Z,78.00
2018-05-13T10:23:32.483Z,80.00
2018-05-13T10:26:01.921Z,80.90
2018-05-13T10:28:30.539Z,80.20
2018-05-13T10:30:58.847Z,81.30
2018-05-13T10:33:27.391Z,82.40
2018-05-13T10:35:55.556Z,83.30
2018-05-13T10:38:23.874Z,84.00
2018-05-13T10:40:53.271Z,81.90
2018-05-13T10:43:21.704Z,82.40
2018-05-13T10:45:50.091Z,83.90
2018-05-13T10:48:20.531Z,83.50
2018-05-13T10:50:49.058Z,84.00
2018-05-13T10:53:17.687Z,84.70
2018-05-13T10:55:46.108Z,85.20
2018-05-13T10:58:14.530Z,84.20
2018-05-13T11:00:43.339Z,84.80
2018-05-13T11:03:13.373Z,86.10
2018-05-13T11:05:42.677Z,87.70
2018-05-13T11:08:12.256Z,87.60
2018-05-13T11:10:40.447Z,85.50
2018-05-13T11:13:10.267Z,83.90
2018-05-13T11:15:38.487Z,84.60
2018-05-13T11:18:07.435Z,86.30
2018-05-13T11:20:36.131Z,86.30
2018-05-13T11:23:05.375Z,86.70
2018-05-13T11:25:34.463Z,87.00
2018-05-13T11:28:03.514Z,88.40
2018-05-13T11:30:32.494Z,87.40
2018-05-13T11:33:02.339Z,86.10
2018-05-13T11:35:31.743Z,85.60
2018-05-13T11:38:00.120Z,85.60
2018-05-13T11:40:28.731Z,87.10
2018-05-13T11:42:56.927Z,86.90
2018-05-13T11:45:25.467Z,86.10
2018-05-13T11:47:55.163Z,88.30
2018-05-13T11:50:23.806Z,88.20
2018-05-13T11:52:51.959Z,88.80
2018-05-13T11:55:21.470Z,89.40
2018-05-13T11:57:49.663Z,89.10
2018-05-13T12:00:18.221Z,88.80
2018-05-13T12:02:46.370Z,89.60
2018-05-13T12:05:14.844Z,90.50
2018-05-13T12:07:43.996Z,90.50
2018-05-13T12:10:12.951Z,90.20
2018-05-13T12:12:41.478Z,90.20
2018-05-13T12:15:09.695Z,90.50
2018-05-13T12:17:38.113Z,90.40
2018-05-13T12:20:06.499Z,90.60
2018-05-13T12:22:35.056Z,87.80
2018-05-13T12:25:03.546Z,87.10
2018-05-13T12:27:31.739Z,88.80
2018-05-13T12:30:00.183Z,89.50
2018-05-13T12:32:28.846Z,89.00
2018-05-13T12:34:57.371Z,90.20
2018-05-13T12:37:25.535Z,90.30
2018-05-13T12:39:54.514Z,89.70
2018-05-13T12:42:23.563Z,90.10
2018-05-13T12:44:51.755Z,89.30
2018-05-13T12:47:22.183Z,88.40
2018-05-13T12:49:50.510Z,88.50
2018-05-13T12:52:19.546Z,89.20
2018-05-13T12:54:49.235Z,89.60
2018-05-13T12:57:19.839Z,89.60
2018-05-13T12:59:48.372Z,90.00
2018-05-13T13:02:16.584Z,87.80
2018-05-13T13:04:45.007Z,87.70
2018-05-13T13:07:13.637Z,88.50
2018-05-13T13:09:42.057Z,87.60
2018-05-13T13:12:11.210Z,88.40
2018-05-13T13:14:40.039Z,85.70
2018-05-13T13:17:08.574Z,86.20
2018-05-13T13:19:36.731Z,87.80
2018-05-13T13:22:05.438Z,88.80
2018-05-13T13:24:33.838Z,89.30
2018-05-13T13:27:03.398Z,86.30
2018-05-13T13:29:32.038Z,86.40
2018-05-13T13:32:00.471Z,85.50
2018-05-13T13:34:28.619Z,86.20
2018-05-13T13:36:56.854Z,86.00
2018-05-13T13:39:25.373Z,85.50
2018-05-13T13:41:53.575Z,86.00
2018-05-13T13:44:22.252Z,87.50
2018-05-13T13:46:52.240Z,87.90
2018-05-13T13:49:20.766Z,87.80
2018-05-13T13:51:49.906Z,87.80
2018-05-13T13:54:18.444Z,89.10
2018-05-13T13:56:46.865Z,87.70
2018-05-13T13:59:15.354Z,87.00
2018-05-13T14:01:43.916Z,85.40
2018-05-13T14:04:12.510Z,86.90
2018-05-13T14:06:40.703Z,86.70
2018-05-13T14:09:09.107Z,84.60
2018-05-13T14:11:37.293Z,85.20
2018-05-13T14:14:05.919Z,85.30
2018-05-13T14:16:35.488Z,85.70
2018-05-13T14:19:04.983Z,84.50
2018-05-13T14:21:34.211Z,85.90
2018-05-13T14:24:02.459Z,85.80
2018-05-13T14:26:31.354Z,87.00
2018-05-13T14:29:00.520Z,87.40
2018-05-13T14:31:28.665Z,88.80
2018-05-13T14:33:57.114Z,87.60
2018-05-13T14:36:25.366Z,87.00
2018-05-13T14:38:54.714Z,86.50
2018-05-13T14:41:22.999Z,86.30
2018-05-13T14:43:51.571Z,85.20
2018-05-13T14:46:20.164Z,85.20
2018-05-13T14:48:48.350Z,85.60
2018-05-13T14:51:16.723Z,86.40
2018-05-13T14:53:45.318Z,86.30
2018-05-13T14:56:13.522Z,87.00
2018-05-13T14:58:42.715Z,87.00
2018-05-13T15:01:11.353Z,87.20
2018-05-13T15:03:40.363Z,86.80
2018-05-13T15:06:08.930Z,86.60
2018-05-13T15:08:37.347Z,87.10
2018-05-13T15:11:05.498Z,87.20
2018-05-13T15:13:34.600Z,87.80
2018-05-13T15:16:03.342Z,89.50
2018-05-13T15:18:31.939Z,90.90
2018-05-13T15:21:00.382Z,89.70
2018-05-13T15:23:28.559Z,90.20
2018-05-13T15:25:57.831Z,89.50
2018-05-13T15:28:26.492Z,89.40
2018-05-13T15:30:54.658Z,90.00
2018-05-13T15:33:23.231Z,90.00
2018-05-13T15:35:51.399Z,90.70
2018-05-13T15:38:19.864Z,91.00
2018-05-13T15:40:48.495Z,91.00
2018-05-13T15:43:17.094Z,90.00
2018-05-13T15:45:45.545Z,89.30
2018-05-13T15:48:13.703Z,90.00
2018-05-13T15:50:42.147Z,90.50
2018-05-13T15:53:10.350Z,90.00
2018-05-13T15:55:39.231Z,90.20
2018-05-13T15:58:07.406Z,90.30
2018-05-13T16:00:36.387Z,90.30
2018-05-13T16:03:05.853Z,89.60
2018-05-13T16:05:34.482Z,89.50
2018-05-13T16:08:03.112Z,90.20
2018-05-13T16:10:31.275Z,90.40
2018-05-13T16:13:00.363Z,90.40
2018-05-13T16:15:28.577Z,90.10
2018-05-13T16:17:56.768Z,89.30
2018-05-13T16:20:25.182Z,89.80
2018-05-13T16:22:53.371Z,90.40
2018-05-13T16:25:21.814Z,89.20
2018-05-13T16:27:50.482Z,89.90
2018-05-13T16:30:18.757Z,89.40
2018-05-13T16:32:47.116Z,90.10
2018-05-13T16:35:15.942Z,90.00
2018-05-13T16:37:44.484Z,89.70
2018-05-13T16:40:13.626Z,90.20
2018-05-13T16:42:41.815Z,90.40
2018-05-13T16:45:10.480Z,89.30
2018-05-13T16:47:38.631Z,90.00
2018-05-13T16:50:07.213Z,90.20
2018-05-13T16:52:36.367Z,89.80
2018-05-13T16:55:05.518Z,90.30
2018-05-13T16:57:33.939Z,90.50
2018-05-13T17:00:02.764Z,89.30
2018-05-13T17:02:31.220Z,90.00
2018-05-13T17:05:00.895Z,90.30
2018-05-13T17:07:30.119Z,89.80
2018-05-13T17:09:58.648Z,89.70
2018-05-13T17:12:27.696Z,90.50
2018-05-13T17:14:56.752Z,90.40
2018-05-13T17:17:25.767Z,90.10
2018-05-13T17:19:54.326Z,90.30
2018-05-13T17:22:22.853Z,90.40
2018-05-13T17:24:51.380Z,90.20
2018-05-13T17:27:19.578Z,89.80
2018-05-13T17:29:48.619Z,89.90
2018-05-13T17:32:18.522Z,89.50
2018-05-13T17:34:47.673Z,89.50
2018-05-13T17:37:16.186Z,90.00
2018-05-13T17:39:44.667Z,89.00
2018-05-13T17:42:13.452Z,88.90
2018-05-13T17:44:42.707Z,88.90
2018-05-13T17:47:11.346Z,89.90
2018-05-13T17:49:40.324Z,90.20
2018-05-13T17:52:09.971Z,87.70
2018-05-13T17:54:38.490Z,88.50
2018-05-13T17:57:07.943Z,87.30
2018-05-13T17:59:36.481Z,88.20
2018-05-13T18:02:04.643Z,87.20
2018-05-13T18:04:33.219Z,88.00
2018-05-13T18:07:01.640Z,86.90
2018-05-13T18:09:29.827Z,87.70
2018-05-13T18:11:58.483Z,88.50
2018-05-13T18:14:28.251Z,90.10
2018-05-13T18:16:57.414Z,90.10
2018-05-13T18:19:25.622Z,89.90
2018-05-13T18:21:55.290Z,90.20
2018-05-13T18:24:24.457Z,90.20
2018-05-13T18:26:53.087Z,89.20
2018-05-13T18:29:21.505Z,89.60
2018-05-13T18:31:49.926Z,88.40
2018-05-13T18:34:18.556Z,89.20
2018-05-13T18:36:47.605Z,88.40
2018-05-13T18:39:15.850Z,88.60
2018-05-13T18:41:44.451Z,89.30
2018-05-13T18:44:13.276Z,89.20
2018-05-13T18:46:41.879Z,90.20
2018-05-13T18:49:10.308Z,90.50
2018-05-13T18:51:38.967Z,90.80
2018-05-13T18:54:07.808Z,90.10
2018-05-13T18:56:37.366Z,90.00
2018-05-13T18:59:06.702Z,89.10
2018-05-13T19:01:35.473Z,89.80
2018-05-13T19:04:03.859Z,88.80
2018-05-13T19:06:33.015Z,89.20
2018-05-13T19:09:01.436Z,89.90
2018-05-13T19:11:30.977Z,87.70
2018-05-13T19:13:59.562Z,88.20
2018-05-13T19:16:27.734Z,88.90
2018-05-13T19:18:56.893Z,88.20
2018-05-13T19:21:25.354Z,88.60
2018-05-13T19:23:53.542Z,88.60
2018-05-13T19:26:21.738Z,87.80
2018-05-13T19:28:50.366Z,88.50
2018-05-13T19:31:18.603Z,89.60
2018-05-13T19:33:47.133Z,88.50
2018-05-13T19:36:15.664Z,88.70
2018-05-13T19:38:46.116Z,89.00
2018-05-13T19:41:15.514Z,88.40
2018-05-13T19:43:44.678Z,88.90
2018-05-13T19:46:13.297Z,89.00
2018-05-13T19:48:41.561Z,88.60
2018-05-13T19:51:10.686Z,87.80
2018-05-13T19:53:39.108Z,90.00
2018-05-13T19:56:08.051Z,87.70
2018-05-13T19:58:38.656Z,88.30
2018-05-13T20:01:07.756Z,88.30
2018-05-13T20:03:36.526Z,89.20
2018-05-13T20:06:04.651Z,88.50
2018-05-13T20:08:34.435Z,89.80
2018-05-13T20:11:03.069Z,89.80
2018-05-13T20:13:31.380Z,88.70
2018-05-13T20:15:59.623Z,89.40
2018-05-13T20:18:28.586Z,89.70
2018-05-13T20:20:57.918Z,90.00
2018-05-13T20:23:26.555Z,88.10
2018-05-13T20:25:54.759Z,88.90
2018-05-13T20:28:23.723Z,89.10
2018-05-13T20:30:52.283Z,89.00
2018-05-13T20:33:20.845Z,89.40
2018-05-13T20:35:49.266Z,88.70
2018-05-13T20:38:17.896Z,89.50
2018-05-13T20:40:46.934Z,88.60
2018-05-13T20:43:15.439Z,89.40
2018-05-13T20:45:44.309Z,88.70
2018-05-13T20:48:12.467Z,89.20
2018-05-13T20:50:41.260Z,89.30
2018-05-13T20:53:09.415Z,90.10
2018-05-13T20:55:38.283Z,90.50
2018-05-13T20:58:06.800Z,89.70
2018-05-13T21:00:35.427Z,90.20
2018-05-13T21:03:03.672Z,90.20
2018-05-13T21:05:32.304Z,90.00
2018-05-13T21:08:00.898Z,89.80
2018-05-13T21:10:29.322Z,90.20
2018-05-13T21:12:58.092Z,90.60
2018-05-13T21:15:26.619Z,89.60
2018-05-13T21:17:55.214Z,90.10
2018-05-13T21:20:23.581Z,89.90
2018-05-13T21:22:53.282Z,90.10
2018-05-13T21:25:22.799Z,90.20
2018-05-13T21:27:51.335Z,90.50
2018-05-13T21:30:19.544Z,90.00
2018-05-13T21:32:48.386Z,88.90
2018-05-13T21:35:16.572Z,89.60
2018-05-13T21:37:45.738Z,90.10
2018-05-13T21:40:14.276Z,89.10
2018-05-13T21:42:43.103Z,89.20
2018-05-13T21:45:12.267Z,89.90
2018-05-13T21:47:40.688Z,89.60
2018-05-13T21:50:09.729Z,89.90
2018-05-13T21:52:38.366Z,89.90
2018-05-13T21:55:06.527Z,90.20
2018-05-13T21:57:35.155Z,90.10
2018-05-13T22:00:04.035Z,89.80
2018-05-13T22:02:33.304Z,90.40
2018-05-13T22:05:01.726Z,90.10
2018-05-13T22:07:30.323Z,90.30
2018-05-13T22:09:58.776Z,90.30
2018-05-13T22:12:27.755Z,90.50
2018-05-13T22:14:56.455Z,90.50
2018-05-13T22:17:24.972Z,90.80
2018-05-13T22:19:53.135Z,90.50
2018-05-13T22:22:21.719Z,90.50
2018-05-13T22:24:50.595Z,91.20
2018-05-13T22:27:19.258Z,91.70
2018-05-13T22:29:47.449Z,91.40
2018-05-13T22:32:16.138Z,91.30
2018-05-13T22:34:44.660Z,91.30
2018-05-13T22:37:13.292Z,90.90
2018-05-13T22:39:41.454Z,91.20
2018-05-13T22:42:10.654Z,91.00
2018-05-13T22:44:39.646Z,91.40
2018-05-13T22:47:08.091Z,91.40
2018-05-13T22:49:36.755Z,91.10
2018-05-13T22:52:05.143Z,91.30
2018-05-13T22:54:33.597Z,91.20
2018-05-13T22:57:02.750Z,91.60
2018-05-13T22:59:32.737Z,91.40
2018-05-13T23:02:01.994Z,91.70
2018-05-13T23:04:31.146Z,91.60
2018-05-13T23:07:00.130Z,91.60
2018-05-13T23:09:29.256Z,91.60
2018-05-13T23:11:57.407Z,91.80
2018-05-13T23:14:25.645Z,91.90
2018-05-13T23:16:54.391Z,92.20
2018-05-13T23:19:23.451Z,92.40
2018-05-13T23:21:51.640Z,92.50
2018-05-13T23:24:20.595Z,92.20
2018-05-13T23:26:50.698Z,92.20
2018-05-13T23:29:19.223Z,92.20
2018-05-13T23:31:48.167Z,92.20
2018-05-13T23:34:18.050Z,92.20
2018-05-13T23:36:46.230Z,92.00
2018-05-13T23:39:15.624Z,92.10
2018-05-13T23:41:44.558Z,91.70
2018-05-13T23:44:13.503Z,92.10
2018-05-13T23:46:42.141Z,92.30
2018-05-13T23:49:10.776Z,91.70
2018-05-13T23:51:40.410Z,91.50
2018-05-13T23:54:09.703Z,91.80
2018-05-13T23:56:38.124Z,92.20
2018-05-13T23:59:07.054Z,92.00
